createdAt,value
2019-02-23T00:02:28.607Z,7.77
2019-02-23T00:04:59.764Z,8.27
2019-02-23T00:07:31.063Z,8.27
2019-02-23T00:10:02.216Z,8.00
2019-02-23T00:12:35.194Z,7.93
2019-02-23T00:15:06.929Z,8.27
2019-02-23T00:17:38.252Z,8.23
2019-02-23T00:20:09.419Z,7.43
2019-02-23T00:22:40.710Z,8.27
2019-02-23T00:25:11.882Z,8.80
2019-02-23T00:27:43.124Z,8.13
2019-02-23T00:30:14.325Z,8.30
2019-02-23T00:32:45.593Z,8.43
2019-02-23T00:35:16.811Z,8.00
2019-02-23T00:37:47.993Z,8.43
2019-02-23T00:40:19.143Z,8.23
2019-02-23T00:42:50.364Z,9.03
2019-02-23T00:45:21.704Z,8.47
2019-02-23T00:47:52.957Z,8.30
2019-02-23T00:50:24.241Z,7.63
2019-02-23T00:52:55.372Z,7.57
2019-02-23T00:55:26.643Z,8.20
2019-02-23T00:57:58.000Z,8.33
2019-02-23T01:00:29.155Z,8.20
2019-02-23T01:03:00.342Z,7.93
2019-02-23T01:05:31.569Z,8.23
2019-02-23T01:08:02.906Z,8.17
2019-02-23T01:10:34.156Z,8.20
2019-02-23T01:13:05.453Z,8.03
2019-02-23T01:15:36.695Z,8.10
2019-02-23T01:18:07.921Z,8.43
2019-02-23T01:20:39.152Z,8.80
2019-02-23T01:23:10.454Z,8.33
2019-02-23T01:25:41.601Z,8.57
2019-02-23T01:28:12.916Z,8.40
2019-02-23T01:30:44.128Z,9.27
2019-02-23T01:33:15.381Z,7.47
2019-02-23T01:35:46.569Z,8.53
2019-02-23T01:38:17.812Z,8.10
2019-02-23T01:40:49.000Z,8.63
2019-02-23T01:43:20.255Z,8.87
2019-02-23T01:45:51.485Z,8.70
2019-02-23T01:48:22.648Z,8.50
2019-02-23T01:50:53.876Z,8.83
2019-02-23T01:53:25.025Z,8.73
2019-02-23T01:55:56.263Z,8.87
2019-02-23T01:58:27.461Z,7.67
2019-02-23T02:00:58.663Z,8.13
2019-02-23T02:03:29.810Z,8.03
2019-02-23T02:06:01.174Z,8.30
2019-02-23T02:08:32.780Z,8.07
2019-02-23T02:11:03.969Z,8.80
2019-02-23T02:13:35.212Z,8.07
2019-02-23T02:16:06.441Z,8.57
2019-02-23T02:18:37.677Z,8.57
2019-02-23T02:21:08.929Z,8.97
2019-02-23T02:23:40.102Z,8.10
2019-02-23T02:26:11.666Z,8.57
2019-02-23T02:28:42.848Z,8.63
2019-02-23T02:31:14.019Z,9.00
2019-02-23T02:34:11.545Z,8.90
2019-02-23T02:36:42.704Z,8.67
2019-02-23T02:39:15.079Z,8.87
2019-02-23T02:41:46.350Z,8.60
2019-02-23T02:44:17.571Z,9.87
2019-02-23T02:46:48.765Z,8.70
2019-02-23T02:49:19.970Z,9.03
2019-02-23T02:51:51.170Z,9.37
2019-02-23T02:54:22.326Z,9.00
2019-02-23T02:56:53.546Z,9.33
2019-02-23T02:59:25.819Z,8.90
2019-02-23T03:01:58.897Z,8.70
2019-02-23T03:04:30.001Z,9.60
2019-02-23T03:07:01.173Z,8.60
2019-02-23T03:09:32.400Z,9.00
2019-02-23T03:12:03.588Z,9.10
2019-02-23T03:14:34.821Z,8.33
2019-02-23T03:17:05.945Z,8.97
2019-02-23T03:19:37.115Z,9.83
2019-02-23T03:22:08.299Z,9.70
2019-02-23T03:24:39.610Z,8.83
2019-02-23T03:27:10.821Z,9.67
2019-02-23T03:29:42.060Z,8.97
2019-02-23T03:32:13.250Z,8.93
2019-02-23T03:34:44.477Z,9.07
2019-02-23T03:37:15.675Z,9.83
2019-02-23T03:39:46.777Z,9.17
2019-02-23T03:42:18.349Z,10.23
2019-02-23T03:44:49.512Z,9.50
2019-02-23T03:47:20.757Z,9.43
2019-02-23T03:49:52.017Z,9.17
2019-02-23T03:52:23.239Z,9.23
2019-02-23T03:54:54.434Z,9.23
2019-02-23T03:57:25.692Z,8.90
2019-02-23T03:59:56.937Z,8.57
2019-02-23T04:02:28.068Z,9.87
2019-02-23T04:04:59.316Z,9.53
2019-02-23T04:07:30.633Z,9.27
2019-02-23T04:10:01.817Z,8.70
2019-02-23T04:12:34.351Z,9.37
2019-02-23T04:15:05.574Z,9.60
2019-02-23T04:17:36.776Z,9.63
2019-02-23T04:20:07.899Z,9.53
2019-02-23T04:22:39.069Z,9.57
2019-02-23T04:25:10.200Z,9.57
2019-02-23T04:27:44.817Z,9.83
2019-02-23T04:30:15.964Z,10.03
2019-02-23T04:32:47.119Z,10.33
2019-02-23T04:35:18.361Z,9.73
2019-02-23T04:37:49.536Z,9.83
2019-02-23T04:40:20.788Z,8.67
2019-02-23T04:42:51.936Z,10.10
2019-02-23T04:45:23.223Z,8.97
2019-02-23T04:47:54.452Z,9.90
2019-02-23T04:50:25.643Z,10.93
2019-02-23T04:52:56.858Z,9.70
2019-02-23T04:55:28.130Z,9.73
2019-02-23T04:57:59.348Z,9.93
2019-02-23T05:00:30.537Z,9.97
2019-02-23T05:03:01.702Z,10.10
2019-02-23T05:05:33.150Z,9.90
2019-02-23T05:08:04.313Z,9.43
2019-02-23T05:10:35.483Z,9.67
2019-02-23T05:13:06.674Z,10.37
2019-02-23T05:15:37.990Z,11.17
2019-02-23T05:18:09.170Z,10.73
2019-02-23T05:20:40.377Z,10.17
2019-02-23T05:23:11.601Z,10.63
2019-02-23T05:25:42.801Z,10.63
2019-02-23T05:28:14.005Z,10.40
2019-02-23T05:30:45.247Z,9.33
2019-02-23T05:33:16.414Z,10.33
2019-02-23T05:35:49.738Z,10.70
2019-02-23T05:38:21.008Z,10.80
2019-02-23T05:40:52.190Z,10.50
2019-02-23T05:43:23.465Z,10.33
2019-02-23T05:45:54.765Z,13.03
2019-02-23T05:48:26.022Z,12.87
2019-02-23T05:50:57.425Z,10.87
2019-02-23T05:53:28.642Z,10.73
2019-02-23T05:55:59.943Z,9.70
2019-02-23T05:58:31.165Z,11.03
2019-02-23T06:01:02.390Z,10.90
2019-02-23T06:03:34.569Z,10.70
2019-02-23T06:06:05.845Z,9.97
2019-02-23T06:08:37.172Z,10.50
2019-02-23T06:11:08.446Z,9.20
2019-02-23T06:13:39.690Z,10.27
2019-02-23T06:16:10.894Z,10.77
2019-02-23T06:18:42.097Z,11.60
2019-02-23T06:21:13.389Z,10.70
2019-02-23T06:23:44.657Z,11.20
2019-02-23T06:26:15.828Z,10.10
2019-02-23T06:28:47.004Z,10.50
2019-02-23T06:31:18.270Z,11.63
2019-02-23T06:33:49.451Z,11.97
2019-02-23T06:36:20.719Z,10.77
2019-02-23T06:38:52.906Z,10.10
2019-02-23T06:41:25.312Z,10.03
2019-02-23T06:43:56.751Z,10.63
2019-02-23T06:46:27.983Z,10.37
2019-02-23T06:48:59.198Z,10.77
2019-02-23T06:51:30.469Z,11.03
2019-02-23T06:54:01.676Z,10.60
2019-02-23T06:56:32.900Z,10.83
2019-02-23T06:59:04.118Z,11.73
2019-02-23T07:01:35.325Z,11.50
2019-02-23T07:04:06.588Z,10.40
2019-02-23T07:06:37.872Z,11.23
2019-02-23T07:09:09.111Z,10.57
2019-02-23T07:11:40.347Z,11.50
2019-02-23T07:14:12.314Z,11.97
2019-02-23T07:16:43.807Z,12.20
2019-02-23T07:19:15.036Z,11.73
2019-02-23T07:21:46.235Z,12.20
2019-02-23T07:24:17.551Z,13.27
2019-02-23T07:26:48.792Z,12.17
2019-02-23T07:29:20.051Z,13.30
2019-02-23T07:31:51.830Z,13.50
2019-02-23T07:34:23.145Z,13.10
2019-02-23T07:36:54.513Z,13.33
2019-02-23T07:39:25.760Z,13.70
2019-02-23T07:41:56.940Z,13.07
2019-02-23T07:44:29.882Z,13.07
2019-02-23T07:47:01.696Z,12.93
2019-02-23T07:49:34.858Z,12.63
2019-02-23T07:52:06.849Z,12.97
2019-02-23T07:54:38.102Z,13.40
2019-02-23T07:57:10.250Z,12.30
2019-02-23T07:59:42.623Z,12.13
2019-02-23T08:02:13.912Z,11.60
2019-02-23T08:04:45.220Z,10.33
2019-02-23T08:07:16.420Z,11.13
2019-02-23T08:09:47.606Z,11.23
2019-02-23T08:12:18.945Z,11.10
2019-02-23T08:14:50.127Z,10.07
2019-02-23T08:17:21.309Z,10.97
2019-02-23T08:19:52.947Z,11.33
2019-02-23T08:22:24.141Z,11.47
2019-02-23T08:24:55.380Z,11.57
2019-02-23T08:27:26.655Z,12.10
2019-02-23T08:29:57.878Z,10.97
2019-02-23T08:32:29.071Z,11.20
2019-02-23T08:35:00.422Z,10.30
2019-02-23T08:37:31.617Z,12.10
2019-02-23T08:40:03.991Z,11.43
2019-02-23T08:42:35.245Z,10.60
2019-02-23T08:45:07.273Z,10.70
2019-02-23T08:47:38.448Z,11.17
2019-02-23T08:50:11.100Z,11.43
2019-02-23T08:52:49.365Z,9.97
2019-02-23T08:55:15.250Z,9.83
2019-02-23T08:57:46.445Z,10.63
2019-02-23T09:00:17.708Z,11.37
2019-02-23T09:02:49.112Z,11.37
2019-02-23T09:05:20.247Z,11.47
2019-02-23T09:07:52.527Z,10.57
2019-02-23T09:10:24.631Z,10.00
2019-02-23T09:12:55.948Z,11.77
2019-02-23T09:15:27.143Z,11.17
2019-02-23T09:17:58.356Z,11.60
2019-02-23T09:20:29.799Z,11.33
2019-02-23T09:23:01.882Z,11.50
2019-02-23T09:25:33.423Z,10.70
2019-02-23T09:28:04.670Z,11.10
2019-02-23T09:30:35.874Z,11.23
2019-02-23T09:33:07.073Z,11.47
2019-02-23T09:35:38.230Z,11.60
2019-02-23T09:38:09.522Z,11.80
2019-02-23T09:40:41.616Z,11.60
2019-02-23T09:43:13.170Z,11.43
2019-02-23T09:45:44.357Z,11.00
2019-02-23T09:48:15.659Z,12.23
2019-02-23T09:50:46.959Z,11.03
2019-02-23T09:53:18.319Z,11.33
2019-02-23T09:55:49.554Z,11.63
2019-02-23T09:58:20.782Z,12.13
2019-02-23T10:00:52.091Z,11.60
2019-02-23T10:03:23.526Z,10.90
2019-02-23T10:05:54.773Z,11.60
2019-02-23T10:08:25.950Z,11.23
2019-02-23T10:10:57.706Z,11.27
2019-02-23T10:13:29.086Z,11.33
2019-02-23T10:16:00.577Z,11.20
2019-02-23T10:18:31.853Z,11.50
2019-02-23T10:21:03.025Z,10.80
2019-02-23T10:23:35.226Z,11.50
2019-02-23T10:26:06.421Z,11.30
2019-02-23T10:28:37.752Z,11.60
2019-02-23T10:31:09.042Z,12.03
2019-02-23T10:33:47.431Z,10.90
2019-02-23T10:36:13.263Z,11.73
2019-02-23T10:38:44.465Z,10.37
2019-02-23T10:41:16.214Z,10.27
2019-02-23T10:43:47.878Z,11.27
2019-02-23T10:46:19.205Z,10.87
2019-02-23T10:48:50.396Z,11.30
2019-02-23T10:51:21.587Z,11.73
2019-02-23T10:53:52.761Z,11.13
2019-02-23T10:56:24.015Z,11.37
2019-02-23T10:58:55.325Z,11.70
2019-02-23T11:01:26.915Z,10.60
2019-02-23T11:03:58.162Z,10.63
2019-02-23T11:06:29.341Z,10.63
2019-02-23T11:09:00.753Z,10.80
2019-02-23T11:11:34.394Z,11.60
2019-02-23T11:14:05.708Z,9.40
2019-02-23T11:16:36.910Z,11.03
2019-02-23T11:19:08.100Z,10.90
2019-02-23T11:21:39.282Z,10.30
2019-02-23T11:24:10.474Z,10.80
2019-02-23T11:26:41.680Z,11.00
2019-02-23T11:29:12.863Z,11.57
2019-02-23T11:31:44.089Z,10.13
2019-02-23T11:34:15.229Z,10.47
2019-02-23T11:36:46.442Z,10.13
2019-02-23T11:39:17.639Z,10.40
2019-02-23T11:41:48.864Z,9.87
2019-02-23T11:44:20.100Z,10.03
2019-02-23T11:47:00.394Z,10.33
2019-02-23T11:49:25.343Z,10.43
2019-02-23T11:51:56.540Z,9.73
2019-02-23T11:54:27.760Z,10.13
2019-02-23T11:56:58.977Z,9.73
2019-02-23T11:59:30.263Z,9.90
2019-02-23T12:02:01.466Z,9.70
2019-02-23T12:04:32.608Z,9.70
2019-02-23T12:07:03.806Z,10.53
2019-02-23T12:09:34.980Z,10.23
2019-02-23T12:12:06.152Z,10.53
2019-02-23T12:14:37.330Z,10.47
2019-02-23T12:17:08.561Z,10.03
2019-02-23T12:19:39.745Z,10.23
2019-02-23T12:22:12.544Z,9.57
2019-02-23T12:24:43.975Z,10.33
2019-02-23T12:27:15.180Z,10.87
2019-02-23T12:29:46.350Z,10.10
2019-02-23T12:32:17.682Z,10.53
2019-02-23T12:34:49.047Z,9.90
2019-02-23T12:37:20.222Z,9.80
2019-02-23T12:39:51.418Z,10.57
2019-02-23T12:42:22.606Z,10.20
2019-02-23T12:44:53.786Z,11.50
2019-02-23T12:47:24.952Z,11.33
2019-02-23T12:49:56.141Z,10.50
2019-02-23T12:52:27.312Z,11.13
2019-02-23T12:54:58.586Z,10.73
2019-02-23T12:57:29.766Z,11.17
2019-02-23T13:00:00.978Z,11.30
2019-02-23T13:02:33.955Z,11.00
2019-02-23T13:05:05.392Z,11.70
2019-02-23T13:07:36.544Z,11.80
2019-02-23T13:10:11.307Z,11.40
2019-02-23T13:13:03.357Z,12.13
2019-02-23T13:15:57.488Z,11.93
2019-02-23T13:18:50.806Z,10.98
2019-02-23T13:22:02.377Z,10.50
2019-02-23T13:24:55.837Z,11.25
2019-02-23T13:27:52.197Z,12.63
2019-02-23T13:30:52.303Z,12.03
2019-02-23T13:34:02.012Z,12.18
2019-02-23T13:37:05.884Z,11.28
2019-02-23T13:40:36.382Z,12.10
2019-02-23T13:43:43.543Z,12.03
2019-02-23T13:46:38.052Z,11.35
2019-02-23T13:49:48.761Z,12.03
2019-02-23T13:53:15.966Z,12.73
2019-02-23T13:56:14.536Z,12.90
2019-02-23T13:59:25.412Z,12.55
2019-02-23T14:02:59.085Z,11.55
2019-02-23T14:05:45.371Z,10.85
2019-02-23T14:08:51.288Z,11.70
2019-02-23T14:11:47.658Z,11.63
2019-02-23T14:14:43.160Z,12.18
2019-02-23T14:17:51.267Z,11.50
2019-02-23T14:20:42.793Z,11.50
2019-02-23T14:23:53.223Z,12.13
2019-02-23T14:26:38.922Z,11.83
2019-02-23T14:29:54.006Z,11.20
2019-02-23T14:33:09.552Z,12.60
2019-02-23T14:36:14.772Z,11.65
2019-02-23T14:39:48.205Z,12.35
2019-02-23T14:42:44.932Z,12.13
2019-02-23T14:45:46.947Z,12.33
2019-02-23T14:48:41.286Z,12.28
2019-02-23T14:52:15.294Z,12.30
2019-02-23T14:55:17.141Z,12.60
2019-02-23T14:58:28.811Z,11.70
2019-02-23T15:01:32.197Z,11.43
2019-02-23T15:04:49.899Z,12.10
2019-02-23T15:08:16.708Z,10.75
2019-02-23T15:11:35.336Z,11.78
2019-02-23T15:14:44.673Z,12.15
2019-02-23T15:17:51.445Z,11.90
2019-02-23T15:21:16.657Z,12.68
2019-02-23T15:24:07.976Z,11.57
2019-02-23T15:27:17.234Z,11.20
2019-02-23T15:30:18.781Z,11.03
2019-02-23T15:33:33.877Z,11.43
2019-02-23T15:36:45.422Z,10.93
2019-02-23T15:40:05.524Z,11.08
2019-02-23T15:42:55.136Z,12.05
2019-02-23T15:45:59.338Z,12.18
2019-02-23T15:48:59.889Z,11.70
2019-02-23T15:51:31.534Z,12.45
2019-02-23T15:54:02.906Z,12.00
2019-02-23T15:56:34.126Z,12.18
2019-02-23T15:59:06.119Z,12.80
2019-02-23T16:01:38.140Z,13.88
2019-02-23T16:04:09.415Z,24.75
2019-02-23T16:06:40.854Z,14.23
2019-02-23T16:09:12.134Z,12.85
2019-02-23T16:11:45.239Z,12.15
2019-02-23T16:14:16.385Z,12.95
2019-02-23T16:16:47.951Z,12.70
2019-02-23T16:19:21.142Z,11.40
2019-02-23T16:21:53.049Z,12.33
2019-02-23T16:24:24.673Z,12.45
2019-02-23T16:26:56.188Z,13.58
2019-02-23T16:29:27.576Z,13.35
2019-02-23T16:31:58.788Z,12.70
2019-02-23T16:34:30.019Z,14.57
2019-02-23T16:37:01.178Z,13.73
2019-02-23T16:39:33.368Z,13.63
2019-02-23T16:42:04.625Z,14.20
2019-02-23T16:44:35.936Z,15.20
2019-02-23T16:47:07.186Z,16.03
2019-02-23T16:49:38.574Z,14.50
2019-02-23T16:52:09.850Z,13.67
2019-02-23T16:54:41.103Z,15.13
2019-02-23T16:57:12.348Z,14.63
2019-02-23T16:59:44.663Z,16.17
2019-02-23T17:02:15.842Z,15.37
2019-02-23T17:04:53.605Z,15.53
2019-02-23T17:07:20.047Z,14.57
2019-02-23T17:09:51.228Z,13.53
2019-02-23T17:12:22.496Z,14.60
2019-02-23T17:14:54.020Z,15.73
2019-02-23T17:17:25.211Z,13.77
2019-02-23T17:19:56.644Z,13.73
2019-02-23T17:22:28.118Z,15.87
2019-02-23T17:24:59.329Z,14.53
2019-02-23T17:27:36.857Z,14.93
2019-02-23T17:30:04.626Z,14.47
2019-02-23T17:32:35.935Z,16.43
2019-02-23T17:35:07.222Z,14.93
2019-02-23T17:37:38.462Z,15.57
2019-02-23T17:40:09.910Z,15.20
2019-02-23T17:42:41.130Z,17.27
2019-02-23T17:45:13.356Z,17.20
2019-02-23T17:47:44.653Z,16.23
2019-02-23T17:50:15.849Z,16.43
2019-02-23T17:52:47.051Z,21.17
2019-02-23T17:55:18.325Z,19.00
2019-02-23T17:57:49.612Z,17.10
2019-02-23T18:00:23.626Z,16.27
2019-02-23T18:02:55.076Z,16.30
2019-02-23T18:05:26.235Z,16.13
2019-02-23T18:07:57.580Z,16.93
2019-02-23T18:10:28.733Z,16.93
2019-02-23T18:13:00.026Z,17.40
2019-02-23T18:15:31.267Z,16.20
2019-02-23T18:18:02.617Z,20.10
2019-02-23T18:20:34.049Z,21.03
2019-02-23T18:23:05.536Z,17.77
2019-02-23T18:25:36.914Z,17.23
2019-02-23T18:28:08.367Z,17.03
2019-02-23T18:30:39.550Z,17.23
2019-02-23T18:33:10.917Z,17.53
2019-02-23T18:35:42.229Z,17.37
2019-02-23T18:38:13.435Z,18.00
2019-02-23T18:40:44.813Z,15.60
2019-02-23T18:43:16.159Z,15.73
2019-02-23T18:45:47.786Z,17.23
2019-02-23T18:48:19.367Z,17.80
2019-02-23T18:50:50.720Z,17.40
2019-02-23T18:53:22.031Z,17.70
2019-02-23T18:55:53.427Z,17.07
2019-02-23T18:58:24.659Z,18.93
2019-02-23T19:00:55.898Z,17.67
2019-02-23T19:03:27.156Z,18.10
2019-02-23T19:05:58.412Z,31.13
2019-02-23T19:08:29.733Z,24.40
2019-02-23T19:11:01.031Z,19.13
2019-02-23T19:13:33.296Z,17.00
2019-02-23T19:16:05.653Z,17.53
2019-02-23T19:18:36.918Z,17.83
2019-02-23T19:21:08.146Z,17.57
2019-02-23T19:23:39.350Z,17.70
2019-02-23T19:26:10.720Z,17.53
2019-02-23T19:28:43.361Z,16.97
2019-02-23T19:31:14.901Z,18.53
2019-02-23T19:33:47.743Z,18.17
2019-02-23T19:36:20.222Z,18.70
2019-02-23T19:38:51.454Z,17.27
2019-02-23T19:41:22.725Z,17.93
2019-02-23T19:43:54.095Z,17.33
2019-02-23T19:46:25.596Z,16.27
2019-02-23T19:48:56.789Z,16.17
2019-02-23T19:51:27.985Z,15.27
2019-02-23T19:53:59.174Z,15.10
2019-02-23T19:56:31.831Z,16.23
2019-02-23T19:59:03.314Z,15.27
2019-02-23T20:01:35.685Z,15.20
2019-02-23T20:04:06.965Z,14.80
2019-02-23T20:06:38.232Z,17.30
2019-02-23T20:09:09.409Z,15.47
2019-02-23T20:11:42.789Z,16.10
2019-02-23T20:14:14.180Z,15.67
2019-02-23T20:16:45.370Z,16.40
2019-02-23T20:19:16.680Z,15.33
2019-02-23T20:21:47.921Z,16.47
2019-02-23T20:24:19.172Z,16.37
2019-02-23T20:26:55.638Z,16.87
2019-02-23T20:29:24.509Z,16.87
2019-02-23T20:31:55.799Z,18.20
2019-02-23T20:34:27.090Z,17.13
2019-02-23T20:36:58.410Z,17.10
2019-02-23T20:39:29.673Z,18.50
2019-02-23T20:42:00.856Z,17.37
2019-02-23T20:44:32.299Z,18.27
2019-02-23T20:47:03.431Z,17.60
2019-02-23T20:49:35.756Z,17.97
2019-02-23T20:52:08.099Z,18.40
2019-02-23T20:54:39.518Z,17.03
2019-02-23T20:57:14.048Z,18.27
2019-02-23T20:59:43.615Z,17.50
2019-02-23T21:02:14.832Z,17.37
2019-02-23T21:04:46.025Z,17.00
2019-02-23T21:07:17.248Z,18.00
2019-02-23T21:09:48.432Z,18.37
2019-02-23T21:12:21.400Z,19.33
2019-02-23T21:14:53.278Z,18.00
2019-02-23T21:17:24.470Z,17.30
2019-02-23T21:19:55.738Z,17.63
2019-02-23T21:22:26.931Z,18.93
2019-02-23T21:24:58.207Z,17.90
2019-02-23T21:27:29.672Z,17.83
2019-02-23T21:30:01.068Z,17.77
2019-02-23T21:32:32.554Z,19.00
2019-02-23T21:35:04.034Z,18.03
2019-02-23T21:37:36.855Z,19.03
2019-02-23T21:40:08.236Z,18.00
2019-02-23T21:42:40.751Z,18.07
2019-02-23T21:45:12.065Z,20.40
2019-02-23T21:47:43.462Z,19.07
2019-02-23T21:50:14.700Z,18.13
2019-02-23T21:52:47.441Z,17.03
2019-02-23T21:55:19.005Z,18.17
2019-02-23T21:57:50.388Z,18.43
2019-02-23T22:00:21.591Z,17.53
2019-02-23T22:02:53.738Z,17.70
2019-02-23T22:05:25.704Z,17.97
2019-02-23T22:07:58.006Z,18.83
2019-02-23T22:10:30.423Z,17.80
2019-02-23T22:13:04.090Z,19.07
2019-02-23T22:15:35.525Z,18.10
2019-02-23T22:18:06.659Z,19.10
2019-02-23T22:20:37.803Z,19.50
2019-02-23T22:23:09.107Z,17.70
2019-02-23T22:25:40.284Z,17.70
2019-02-23T22:28:11.453Z,18.37
2019-02-23T22:30:42.635Z,18.67
2019-02-23T22:33:14.253Z,18.67
2019-02-23T22:35:45.507Z,18.73
2019-02-23T22:38:16.785Z,18.67
2019-02-23T22:40:48.108Z,18.17
2019-02-23T22:43:19.345Z,17.83
2019-02-23T22:45:53.163Z,18.03
2019-02-23T22:48:25.479Z,18.87
2019-02-23T22:50:56.703Z,19.67
2019-02-23T22:53:27.999Z,18.60
2019-02-23T22:55:59.274Z,17.63
2019-02-23T22:58:30.509Z,17.67
2019-02-23T23:01:02.884Z,17.57
2019-02-23T23:03:36.073Z,18.80
2019-02-23T23:06:07.376Z,18.50
2019-02-23T23:08:38.643Z,17.67
2019-02-23T23:11:10.043Z,16.97
2019-02-23T23:13:41.325Z,18.63
2019-02-23T23:16:12.625Z,18.37
2019-02-23T23:18:43.902Z,18.40
2019-02-23T23:21:15.223Z,17.30
2019-02-23T23:23:46.463Z,17.73
2019-02-23T23:26:17.778Z,16.60
2019-02-23T23:28:49.044Z,18.00
2019-02-23T23:31:20.225Z,17.47
2019-02-23T23:33:51.554Z,17.87
2019-02-23T23:36:22.714Z,18.17
2019-02-23T23:38:53.899Z,18.00
2019-02-23T23:41:25.190Z,18.37
2019-02-23T23:43:56.303Z,18.33
2019-02-23T23:46:27.528Z,18.40
2019-02-23T23:48:58.793Z,18.33
2019-02-23T23:51:30.008Z,19.30
2019-02-23T23:54:01.216Z,18.03
2019-02-23T23:56:32.491Z,17.30
2019-02-23T23:59:03.625Z,18.57
